To NAV CANADA Home Page Login to a new session Search on AWWS site Feedback and Comments Disclaimer Vers la page française équivalente Tips FAQ What's new on the site To the Forecasts and Observations / NOTAM section To "File a Flight Plan" website Publications and other links Update of the User's profile FIC Telephone Numbers My Weather Data Folder Route Weather Data Regional Weather Data Local Weather Data To the Forecasts and Observations / NOTAM section
Request Generated 05/30/2016 at 16:20:03 UTC . Weather information available at that time is displayed.

METAR/TAF

DEASE LAKE/BC    (show WxCam)

SPECI CYDL 301615Z AUTO VRB02KT 9SM -RA SCT014 OVC035 05/04 A3021 RMK
SLP246=
METAR CYDL 301600Z AUTO VRB02KT 9SM -RA BKN014 OVC023 04/04 A3021 RMK
SLP246=
SPECI CYDL 301501Z AUTO 26004KT 200V290 8SM RA SCT004 BKN011 OVC021
04/04 A3020 RMK SLP242=
METAR CYDL 301500Z AUTO 26004KT 200V290 8SM RA BKN004 BKN011 OVC021
04/04 A3020 RMK SLP242=
SPECI CYDL 301458Z AUTO 25004KT 170V290 9SM RA BKN004 BKN011 OVC021
05/04 A3020 RMK SLP241=
SPECI CYDL 301406Z AUTO 09004KT 9SM -RA BKN023 OVC030 05/04 A3018 RMK
SLP236=
SPECI CYDL 301404Z AUTO 08004KT 9SM -RA BKN020 OVC030 05/04 A3018 RMK
SLP235=
METAR CYDL 301400Z AUTO 07004KT 9SM -RA SCT020 OVC030 05/04 A3018 RMK
SLP235=

TAF CYDL 301538Z 3016/3102 26005KT P6SM SCT004 BKN010 OVC020 TEMPO
3016/3019 4SM -SHRA BR BKN004 OVC010
FM301900 20005KT P6SM SCT020 OVC030 TEMPO 3019/3102 5SM -SHRA BR
SCT008 OVC020
RMK FCST BASED ON AUTO OBS. NXT FCST BY 301800Z=
Your time UTC time
Weather data provided by Environment Canada and NAV CANADA